createdAt,value
2022-11-27T00:02:13.699Z,20.80
2022-11-27T00:04:40.184Z,21.40
2022-11-27T00:07:06.761Z,19.57
2022-11-27T00:09:33.592Z,21.00
2022-11-27T00:12:00.097Z,22.37
2022-11-27T00:14:26.531Z,22.10
2022-11-27T00:16:53.090Z,23.50
2022-11-27T00:19:19.566Z,25.13
2022-11-27T00:21:46.062Z,25.83
2022-11-27T00:24:12.518Z,28.87
2022-11-27T00:26:38.941Z,25.83
2022-11-27T00:29:05.867Z,24.13
2022-11-27T00:31:33.096Z,21.97
2022-11-27T00:34:00.936Z,20.63
2022-11-27T00:36:30.844Z,21.87
2022-11-27T00:38:57.504Z,19.80
2022-11-27T00:41:24.994Z,20.80
2022-11-27T00:43:51.619Z,20.67
2022-11-27T00:46:21.643Z,19.73
2022-11-27T00:48:50.439Z,20.13
2022-11-27T00:51:17.712Z,20.90
2022-11-27T00:53:44.367Z,19.83
2022-11-27T00:56:11.571Z,20.97
2022-11-27T00:58:38.036Z,20.90
2022-11-27T01:01:05.637Z,20.77
2022-11-27T01:03:32.202Z,20.43
2022-11-27T01:06:02.557Z,21.93
2022-11-27T01:08:28.997Z,21.97
2022-11-27T01:10:55.983Z,20.73
2022-11-27T01:13:29.549Z,19.33
2022-11-27T01:16:00.173Z,21.77
2022-11-27T01:18:26.739Z,20.20
2022-11-27T01:20:53.382Z,20.83
2022-11-27T01:23:20.102Z,21.60
2022-11-27T01:25:46.575Z,21.10
2022-11-27T01:28:13.026Z,22.53
2022-11-27T01:30:39.485Z,22.27
2022-11-27T01:33:05.949Z,22.73
2022-11-27T01:35:33.812Z,23.73
2022-11-27T01:38:00.424Z,22.83
2022-11-27T01:40:27.172Z,23.80
2022-11-27T01:42:53.662Z,24.10
2022-11-27T01:45:20.197Z,24.80
2022-11-27T01:47:47.619Z,22.60
2022-11-27T01:50:15.868Z,22.50
2022-11-27T01:52:43.130Z,20.93
2022-11-27T01:55:18.984Z,23.87
2022-11-27T01:57:49.407Z,22.63
2022-11-27T02:00:16.187Z,22.00
2022-11-27T02:02:43.289Z,22.40
2022-11-27T02:05:10.242Z,23.43
2022-11-27T02:07:36.756Z,24.67
2022-11-27T02:10:03.637Z,23.30
2022-11-27T02:12:39.394Z,23.40
2022-11-27T02:15:09.823Z,22.57
2022-11-27T02:17:38.207Z,24.10
2022-11-27T02:20:25.026Z,23.43
2022-11-27T02:23:06.792Z,24.00
2022-11-27T02:25:52.617Z,24.07
2022-11-27T02:28:24.959Z,23.03
2022-11-27T02:30:59.596Z,23.23
2022-11-27T02:33:26.047Z,23.87
2022-11-27T02:35:54.685Z,23.37
2022-11-27T02:38:23.105Z,25.67
2022-11-27T02:40:49.534Z,26.57
2022-11-27T02:43:17.150Z,26.60
2022-11-27T02:45:44.565Z,24.03
2022-11-27T02:48:11.573Z,22.70
2022-11-27T02:50:38.478Z,24.20
2022-11-27T02:53:06.353Z,25.17
2022-11-27T02:55:33.591Z,24.00
2022-11-27T02:58:00.227Z,25.07
2022-11-27T03:00:26.641Z,25.63
2022-11-27T03:02:55.167Z,24.83
2022-11-27T03:05:21.821Z,25.60
2022-11-27T03:07:50.325Z,26.33
2022-11-27T03:10:19.301Z,27.57
2022-11-27T03:12:46.446Z,28.00
2022-11-27T03:15:12.879Z,27.00
2022-11-27T03:17:51.762Z,26.63
2022-11-27T03:20:28.411Z,28.73
2022-11-27T03:22:55.059Z,28.50
2022-11-27T03:25:21.872Z,28.10
2022-11-27T03:27:56.356Z,28.17
2022-11-27T03:30:22.837Z,29.07
2022-11-27T03:32:49.358Z,27.93
2022-11-27T03:35:16.621Z,27.97
2022-11-27T03:37:43.081Z,28.73
2022-11-27T03:40:10.195Z,28.43
2022-11-27T03:42:49.238Z,30.30
2022-11-27T03:45:21.837Z,29.97
2022-11-27T03:48:06.907Z,26.87
2022-11-27T03:50:39.498Z,25.37
2022-11-27T03:53:17.286Z,24.73
2022-11-27T03:55:53.404Z,24.43
2022-11-27T03:58:29.621Z,23.77
2022-11-27T04:00:56.147Z,22.40
2022-11-27T04:03:26.014Z,21.23
2022-11-27T04:05:52.560Z,20.40
2022-11-27T04:08:19.082Z,20.37
2022-11-27T04:10:45.576Z,19.47
2022-11-27T04:13:12.071Z,22.37
2022-11-27T04:15:38.542Z,22.63
2022-11-27T04:18:05.024Z,27.03
2022-11-27T04:20:31.570Z,26.77
2022-11-27T04:22:58.114Z,25.60
2022-11-27T04:25:24.561Z,26.20
2022-11-27T04:27:51.036Z,21.33
2022-11-27T04:30:17.666Z,21.53
2022-11-27T04:32:44.308Z,18.97
2022-11-27T04:35:10.885Z,18.57
2022-11-27T04:37:37.406Z,19.37
2022-11-27T04:40:04.491Z,18.97
2022-11-27T04:42:31.050Z,19.43
2022-11-27T04:44:57.668Z,20.80
2022-11-27T04:47:24.123Z,19.63
2022-11-27T04:49:50.578Z,19.67
2022-11-27T04:52:17.102Z,20.20
2022-11-27T04:54:43.719Z,20.80
2022-11-27T04:57:10.241Z,20.37
2022-11-27T04:59:36.712Z,21.73
2022-11-27T05:02:03.194Z,22.10
2022-11-27T05:04:29.974Z,20.60
2022-11-27T05:06:56.504Z,19.73
2022-11-27T05:09:23.322Z,21.40
2022-11-27T05:11:49.856Z,21.43
2022-11-27T05:14:17.936Z,21.23
2022-11-27T05:16:45.105Z,23.10
2022-11-27T05:19:11.758Z,26.00
2022-11-27T05:21:38.355Z,27.37
2022-11-27T05:24:05.038Z,27.83
2022-11-27T05:26:31.525Z,26.83
2022-11-27T05:28:57.957Z,28.77
2022-11-27T05:31:24.570Z,27.63
2022-11-27T05:33:51.031Z,31.10
2022-11-27T05:36:17.567Z,29.40
2022-11-27T05:38:44.105Z,29.83
2022-11-27T05:41:10.599Z,29.67
2022-11-27T05:43:37.171Z,29.27
2022-11-27T05:46:04.727Z,27.83
2022-11-27T05:48:31.195Z,29.73
2022-11-27T05:50:57.761Z,28.07
2022-11-27T05:53:24.244Z,30.53
2022-11-27T05:55:50.779Z,29.40
2022-11-27T05:58:17.239Z,29.40
2022-11-27T06:00:43.743Z,31.80
2022-11-27T06:03:10.423Z,33.17
2022-11-27T06:05:40.381Z,32.93
2022-11-27T06:08:06.837Z,36.30
2022-11-27T06:10:33.520Z,37.20
2022-11-27T06:13:00.211Z,34.77
2022-11-27T06:15:26.789Z,32.53
2022-11-27T06:17:53.281Z,34.90
2022-11-27T06:20:20.600Z,36.33
2022-11-27T06:22:47.104Z,36.73
2022-11-27T06:25:13.541Z,36.70
2022-11-27T06:27:40.203Z,37.97
2022-11-27T06:30:07.146Z,34.47
2022-11-27T06:32:33.703Z,37.77
2022-11-27T06:35:00.202Z,35.20
2022-11-27T06:37:27.092Z,37.60
2022-11-27T06:39:53.555Z,35.60
2022-11-27T06:42:20.034Z,38.30
2022-11-27T06:44:46.743Z,38.13
2022-11-27T06:47:13.223Z,34.93
2022-11-27T06:49:39.876Z,39.17
2022-11-27T06:52:06.339Z,39.27
2022-11-27T06:54:32.793Z,37.33
2022-11-27T06:56:59.369Z,39.67
2022-11-27T06:59:25.922Z,37.60
2022-11-27T07:01:52.756Z,36.33
2022-11-27T07:04:19.956Z,38.63
2022-11-27T07:06:46.635Z,36.10
2022-11-27T07:09:13.381Z,37.63
2022-11-27T07:11:39.864Z,37.97
2022-11-27T07:14:06.466Z,37.30
2022-11-27T07:16:33.841Z,38.10
2022-11-27T07:19:01.480Z,36.87
2022-11-27T07:21:28.070Z,38.53
2022-11-27T07:23:56.560Z,37.97
2022-11-27T07:26:24.111Z,40.30
2022-11-27T07:28:50.803Z,39.20
2022-11-27T07:31:28.390Z,37.87
2022-11-27T07:33:54.977Z,38.10
2022-11-27T07:36:22.474Z,36.80
2022-11-27T07:38:49.003Z,37.70
2022-11-27T07:41:15.636Z,37.50
2022-11-27T07:43:42.399Z,35.47
2022-11-27T07:46:13.005Z,34.63
2022-11-27T07:48:39.648Z,35.50
2022-11-27T07:51:06.666Z,37.87
2022-11-27T07:53:35.419Z,35.33
2022-11-27T07:56:01.934Z,36.63
2022-11-27T07:58:29.018Z,33.03
2022-11-27T08:00:56.534Z,35.73
2022-11-27T08:03:23.429Z,36.37
2022-11-27T08:05:50.037Z,36.30
2022-11-27T08:08:16.552Z,34.40
2022-11-27T08:10:43.095Z,31.93
2022-11-27T08:13:09.570Z,33.43
2022-11-27T08:15:36.677Z,31.27
2022-11-27T08:18:03.307Z,29.97
2022-11-27T08:20:29.801Z,29.63
2022-11-27T08:23:02.291Z,27.63
2022-11-27T08:25:29.337Z,30.43
2022-11-27T08:27:55.802Z,30.43
2022-11-27T08:30:23.867Z,31.53
2022-11-27T08:32:50.373Z,32.67
2022-11-27T08:35:17.027Z,31.33
2022-11-27T08:37:43.664Z,30.70
2022-11-27T08:40:10.449Z,30.30
2022-11-27T08:42:37.037Z,29.37
2022-11-27T08:45:03.678Z,29.33
2022-11-27T08:47:30.404Z,28.33
2022-11-27T08:49:56.891Z,29.40
2022-11-27T08:52:23.494Z,28.53
2022-11-27T08:54:53.183Z,29.93
2022-11-27T08:57:26.230Z,27.27
2022-11-27T08:59:52.920Z,27.60
2022-11-27T09:02:19.391Z,28.83
2022-11-27T09:04:46.071Z,26.07
2022-11-27T09:07:14.816Z,28.27
2022-11-27T09:09:41.425Z,28.83
2022-11-27T09:12:07.952Z,27.03
2022-11-27T09:14:34.525Z,26.30
2022-11-27T09:17:01.048Z,25.10
2022-11-27T09:19:27.672Z,24.47
2022-11-27T09:21:54.164Z,22.93
2022-11-27T09:24:20.681Z,22.30
2022-11-27T09:26:47.231Z,23.17
2022-11-27T09:29:13.698Z,21.20
2022-11-27T09:31:40.341Z,21.13
2022-11-27T09:34:06.810Z,20.37
2022-11-27T09:36:33.438Z,20.53
2022-11-27T09:39:00.310Z,18.63
2022-11-27T09:41:29.883Z,18.57
2022-11-27T09:43:57.168Z,19.17
2022-11-27T09:46:29.570Z,19.27
2022-11-27T09:48:56.141Z,18.60
2022-11-27T09:51:27.982Z,16.43
2022-11-27T09:54:02.434Z,17.57
2022-11-27T09:56:29.050Z,16.30
2022-11-27T09:58:59.215Z,16.83
2022-11-27T10:01:35.515Z,15.80
2022-11-27T10:04:07.085Z,15.80
2022-11-27T10:06:48.092Z,15.67
2022-11-27T10:09:33.324Z,16.20
2022-11-27T10:12:08.989Z,16.63
2022-11-27T10:14:35.423Z,15.83
2022-11-27T10:17:03.377Z,15.87
2022-11-27T10:19:42.911Z,15.70
2022-11-27T10:22:21.717Z,16.20
2022-11-27T10:25:00.534Z,14.03
2022-11-27T10:27:41.243Z,13.60
2022-11-27T10:30:17.866Z,12.10
2022-11-27T10:32:55.045Z,11.83
2022-11-27T10:35:25.875Z,11.77
2022-11-27T10:38:12.858Z,12.33
2022-11-27T10:40:39.418Z,11.03
2022-11-27T10:43:16.587Z,9.53
2022-11-27T10:45:48.046Z,10.30
2022-11-27T10:48:14.695Z,9.60
2022-11-27T10:50:41.692Z,9.80
2022-11-27T10:53:08.951Z,10.20
2022-11-27T10:55:35.566Z,11.47
2022-11-27T10:58:25.331Z,12.87
2022-11-27T11:01:02.049Z,12.27
2022-11-27T11:03:28.695Z,12.47
2022-11-27T11:08:46.221Z,12.73
2022-11-27T11:11:12.734Z,11.73
2022-11-27T11:13:48.572Z,11.37
2022-11-27T11:16:23.992Z,10.83
2022-11-27T11:18:51.695Z,11.90
2022-11-27T11:21:30.392Z,13.40
2022-11-27T11:24:01.451Z,12.80
2022-11-27T11:26:31.659Z,11.57
2022-11-27T11:28:59.037Z,11.53
2022-11-27T11:31:33.336Z,11.90
2022-11-27T11:34:00.846Z,12.13
2022-11-27T11:36:27.384Z,13.13
2022-11-27T11:38:54.046Z,12.23
2022-11-27T11:41:20.709Z,11.57
2022-11-27T11:44:01.183Z,10.03
2022-11-27T11:46:32.944Z,13.10
2022-11-27T11:49:00.769Z,12.30
2022-11-27T11:51:34.103Z,10.20
2022-11-27T11:54:20.882Z,9.10
2022-11-27T11:56:52.193Z,7.00
2022-11-27T11:59:27.586Z,8.87
2022-11-27T12:02:13.156Z,8.10
2022-11-27T12:04:43.367Z,11.03
2022-11-27T12:07:10.151Z,10.47
2022-11-27T12:09:36.645Z,11.73
2022-11-27T12:12:06.391Z,10.53
2022-11-27T12:14:39.284Z,8.97
2022-11-27T12:17:24.755Z,7.83
2022-11-27T12:19:54.867Z,6.40
2022-11-27T12:22:21.323Z,6.00
2022-11-27T12:25:06.946Z,6.37
2022-11-27T12:27:36.504Z,5.53
2022-11-27T12:30:03.140Z,6.33
2022-11-27T12:32:56.131Z,6.30
2022-11-27T12:35:22.629Z,6.10
2022-11-27T12:38:06.255Z,4.93
2022-11-27T12:40:56.037Z,2.53
2022-11-27T12:43:24.571Z,2.33
2022-11-27T12:45:57.392Z,3.10
2022-11-27T12:48:31.754Z,3.73
2022-11-27T12:50:59.402Z,2.97
2022-11-27T12:53:28.639Z,2.67
2022-11-27T12:56:04.465Z,2.90
2022-11-27T12:58:36.696Z,3.13
2022-11-27T13:01:04.603Z,2.67
2022-11-27T13:03:33.926Z,2.97
2022-11-27T13:06:03.403Z,2.40
2022-11-27T13:08:41.982Z,3.07
2022-11-27T13:11:08.990Z,3.83
2022-11-27T13:13:58.947Z,4.83
2022-11-27T13:16:27.320Z,6.70
2022-11-27T13:18:55.276Z,7.53
2022-11-27T13:21:23.751Z,7.93
2022-11-27T13:23:51.523Z,7.27
2022-11-27T13:26:26.284Z,8.37
2022-11-27T13:28:54.172Z,9.27
2022-11-27T13:31:22.025Z,10.10
2022-11-27T13:33:49.074Z,10.27
2022-11-27T13:36:22.845Z,10.13
2022-11-27T13:38:56.445Z,9.90
2022-11-27T13:41:24.301Z,8.77
2022-11-27T13:43:50.833Z,8.77
2022-11-27T13:46:20.591Z,8.97
2022-11-27T13:48:48.367Z,9.77
2022-11-27T13:51:22.382Z,10.20
2022-11-27T13:53:48.896Z,9.87
2022-11-27T13:56:15.615Z,11.77
2022-11-27T13:58:42.498Z,12.07
2022-11-27T14:01:35.599Z,12.57
2022-11-27T14:04:09.569Z,14.17
2022-11-27T14:06:36.078Z,12.53
2022-11-27T14:09:03.314Z,12.73
2022-11-27T14:11:34.754Z,12.53
2022-11-27T14:14:01.372Z,12.23
2022-11-27T14:16:28.988Z,12.57
2022-11-27T14:18:57.402Z,14.20
2022-11-27T14:21:31.384Z,12.73
2022-11-27T14:23:57.937Z,13.30
2022-11-27T14:26:24.726Z,10.97
2022-11-27T14:28:57.400Z,10.07
2022-11-27T14:31:28.497Z,10.37
2022-11-27T14:36:41.628Z,9.80
2022-11-27T14:39:09.136Z,9.20
2022-11-27T14:41:35.682Z,9.60
2022-11-27T14:44:02.664Z,9.10
2022-11-27T14:46:29.268Z,9.67
2022-11-27T14:48:58.692Z,8.37
2022-11-27T14:51:29.157Z,9.73
2022-11-27T14:54:02.548Z,10.30
2022-11-27T14:56:30.888Z,9.60
2022-11-27T14:58:57.526Z,10.17
2022-11-27T15:01:25.391Z,12.10
2022-11-27T15:04:01.766Z,10.83
2022-11-27T15:06:30.030Z,10.83
2022-11-27T15:09:23.764Z,11.37
2022-11-27T15:11:55.610Z,11.67
2022-11-27T15:14:22.960Z,11.60
2022-11-27T15:16:49.987Z,11.93
2022-11-27T15:19:17.541Z,12.40
2022-11-27T15:21:43.970Z,14.67
2022-11-27T15:24:23.141Z,14.87
2022-11-27T15:26:49.884Z,14.23
2022-11-27T15:29:36.815Z,14.83
2022-11-27T15:32:03.632Z,13.77
2022-11-27T15:34:30.389Z,14.67
2022-11-27T15:36:57.937Z,16.60
2022-11-27T15:39:24.561Z,11.93
2022-11-27T15:42:01.663Z,10.10
2022-11-27T15:44:29.497Z,10.47
2022-11-27T15:46:56.660Z,10.13
2022-11-27T15:49:23.619Z,10.67
2022-11-27T15:51:50.348Z,10.53
2022-11-27T15:54:17.019Z,13.07
2022-11-27T15:56:43.572Z,12.20
2022-11-27T15:59:10.873Z,15.53
2022-11-27T16:01:37.687Z,16.53
2022-11-27T16:04:04.337Z,15.17
2022-11-27T16:06:30.948Z,17.40
2022-11-27T16:08:57.746Z,17.33
2022-11-27T16:11:24.520Z,18.57
2022-11-27T16:13:51.161Z,19.33
2022-11-27T16:16:17.913Z,19.13
2022-11-27T16:18:44.492Z,20.50
2022-11-27T16:21:11.676Z,21.40
2022-11-27T16:23:38.476Z,20.43
2022-11-27T16:26:05.321Z,23.20
2022-11-27T16:28:31.961Z,23.17
2022-11-27T16:30:59.083Z,24.80
2022-11-27T16:33:25.953Z,22.67
2022-11-27T16:35:52.493Z,19.60
2022-11-27T16:38:19.042Z,19.20
2022-11-27T16:40:45.568Z,19.87
2022-11-27T16:43:12.107Z,20.23
2022-11-27T16:45:38.690Z,22.40
2022-11-27T16:48:05.266Z,21.87
2022-11-27T16:50:32.201Z,21.73
2022-11-27T16:52:58.692Z,21.67
2022-11-27T16:55:25.323Z,20.37
2022-11-27T16:57:51.828Z,24.13
2022-11-27T17:00:18.894Z,22.67
2022-11-27T17:02:45.562Z,23.93
2022-11-27T17:05:12.082Z,25.97
2022-11-27T17:07:38.554Z,27.03
2022-11-27T17:10:05.361Z,26.60
2022-11-27T17:12:32.465Z,29.43
2022-11-27T17:14:59.085Z,35.87
2022-11-27T17:17:25.687Z,31.93
2022-11-27T17:19:55.220Z,31.40
2022-11-27T17:22:21.708Z,29.33
2022-11-27T17:24:48.372Z,28.77
2022-11-27T17:27:14.867Z,28.27
2022-11-27T17:29:41.539Z,28.07
2022-11-27T17:32:10.160Z,28.67
2022-11-27T17:34:36.805Z,28.00
2022-11-27T17:37:03.253Z,29.13
2022-11-27T17:39:31.185Z,28.23
2022-11-27T17:41:57.816Z,28.63
2022-11-27T17:44:24.275Z,27.77
2022-11-27T17:46:50.867Z,31.27
2022-11-27T17:49:17.504Z,31.87
2022-11-27T17:51:44.064Z,31.50
2022-11-27T17:54:24.615Z,32.77
2022-11-27T17:56:51.739Z,30.03
2022-11-27T17:59:18.918Z,29.50
2022-11-27T18:01:45.827Z,28.33
2022-11-27T18:04:12.551Z,29.73
2022-11-27T18:06:39.041Z,28.43
2022-11-27T18:09:05.628Z,29.37
2022-11-27T18:11:33.767Z,32.77
2022-11-27T18:14:00.482Z,32.43
2022-11-27T18:16:30.988Z,30.20
2022-11-27T18:18:57.972Z,29.90
2022-11-27T18:21:27.226Z,31.23
2022-11-27T18:24:21.791Z,30.13
2022-11-27T18:27:06.420Z,29.83
2022-11-27T18:29:27.594Z,31.13
2022-11-27T18:31:54.143Z,30.60
2022-11-27T18:34:20.878Z,32.57
2022-11-27T18:36:47.468Z,32.57
2022-11-27T18:39:13.967Z,36.40
2022-11-27T18:41:40.883Z,38.50
2022-11-27T18:44:07.457Z,41.43
2022-11-27T18:46:34.051Z,43.30
2022-11-27T18:49:00.568Z,47.30
2022-11-27T18:51:27.172Z,41.73
2022-11-27T18:53:54.679Z,42.77
2022-11-27T18:56:25.542Z,43.67
2022-11-27T18:58:52.103Z,43.87
2022-11-27T19:01:19.611Z,41.37
2022-11-27T19:03:46.207Z,41.93
2022-11-27T19:06:13.218Z,38.57
2022-11-27T19:08:39.721Z,37.23
2022-11-27T19:11:10.120Z,37.67
2022-11-27T19:13:36.843Z,37.30
2022-11-27T19:16:06.921Z,37.17
2022-11-27T19:18:33.761Z,37.13
2022-11-27T19:21:00.247Z,37.17
2022-11-27T19:23:26.902Z,38.13
2022-11-27T19:25:53.462Z,40.30
2022-11-27T19:28:19.965Z,42.00
2022-11-27T19:30:46.550Z,38.90
2022-11-27T19:33:12.994Z,39.20
2022-11-27T19:35:39.498Z,37.37
2022-11-27T19:38:05.979Z,37.60
2022-11-27T19:40:32.718Z,37.80
2022-11-27T19:43:01.161Z,37.07
2022-11-27T19:45:28.533Z,35.77
2022-11-27T19:47:55.037Z,33.87
2022-11-27T19:50:21.506Z,34.93
2022-11-27T19:52:48.001Z,35.60
2022-11-27T19:55:14.482Z,35.17
2022-11-27T19:57:40.930Z,36.20
2022-11-27T20:00:07.699Z,36.03
2022-11-27T20:02:37.260Z,36.73
2022-11-27T20:05:04.280Z,35.50
2022-11-27T20:07:30.778Z,34.77
2022-11-27T20:09:57.346Z,35.03
2022-11-27T20:12:23.830Z,35.77
2022-11-27T20:14:50.417Z,39.37
2022-11-27T20:17:16.851Z,39.47
2022-11-27T20:19:43.606Z,40.13
2022-11-27T20:22:10.395Z,40.10
2022-11-27T20:24:47.999Z,40.73
2022-11-27T20:27:23.474Z,40.17
2022-11-27T20:29:49.962Z,40.43
2022-11-27T20:32:16.548Z,43.97
2022-11-27T20:34:43.210Z,42.03
2022-11-27T20:37:09.901Z,42.60
2022-11-27T20:39:37.434Z,42.87
2022-11-27T20:42:04.444Z,39.67
2022-11-27T20:44:31.049Z,41.40
2022-11-27T20:46:57.761Z,44.43
2022-11-27T20:49:24.507Z,47.07
2022-11-27T20:51:51.113Z,45.57
2022-11-27T20:54:17.643Z,46.43
2022-11-27T20:56:45.726Z,49.30
2022-11-27T20:59:12.754Z,47.10
2022-11-27T21:01:39.347Z,46.57
2022-11-27T21:04:09.864Z,44.57
2022-11-27T21:06:41.941Z,41.73
2022-11-27T21:09:10.120Z,43.10
2022-11-27T21:11:36.792Z,44.43
2022-11-27T21:14:04.759Z,43.40
2022-11-27T21:16:31.833Z,40.57
2022-11-27T21:19:02.661Z,40.97
2022-11-27T21:21:29.209Z,40.87
2022-11-27T21:23:55.842Z,42.57
2022-11-27T21:26:22.633Z,39.80
2022-11-27T21:28:50.285Z,42.23
2022-11-27T21:31:17.037Z,40.67
2022-11-27T21:33:45.664Z,42.97
2022-11-27T21:36:12.164Z,42.73
2022-11-27T21:38:38.629Z,45.40
2022-11-27T21:41:05.217Z,42.87
2022-11-27T21:43:31.934Z,42.90
2022-11-27T21:45:58.749Z,39.97
2022-11-27T21:48:27.357Z,40.63
2022-11-27T21:50:59.812Z,41.30
2022-11-27T21:53:26.277Z,39.70
2022-11-27T21:55:52.722Z,38.47
2022-11-27T21:58:19.218Z,36.60
2022-11-27T22:00:45.826Z,36.33
2022-11-27T22:03:12.540Z,35.90
2022-11-27T22:05:39.013Z,33.43
2022-11-27T22:08:05.604Z,33.27
2022-11-27T22:10:32.272Z,34.23
2022-11-27T22:12:58.831Z,37.77
2022-11-27T22:15:25.314Z,34.37
2022-11-27T22:17:51.810Z,35.20
2022-11-27T22:20:18.498Z,35.27
2022-11-27T22:22:45.424Z,35.83
2022-11-27T22:25:12.718Z,36.63
2022-11-27T22:27:39.386Z,36.97
2022-11-27T22:30:06.269Z,37.47
2022-11-27T22:32:33.180Z,36.47
2022-11-27T22:34:59.998Z,36.33
2022-11-27T22:37:26.566Z,36.07
2022-11-27T22:39:53.208Z,34.70
2022-11-27T22:42:19.936Z,35.17
2022-11-27T22:44:46.884Z,35.37
2022-11-27T22:47:13.435Z,33.07
2022-11-27T22:49:40.008Z,35.93
2022-11-27T22:52:07.029Z,35.00
2022-11-27T22:54:33.649Z,34.73
2022-11-27T22:57:00.258Z,34.43
2022-11-27T22:59:34.843Z,33.93
2022-11-27T23:02:02.480Z,36.00
2022-11-27T23:04:29.139Z,32.77
2022-11-27T23:06:56.036Z,34.33
2022-11-27T23:09:22.661Z,31.70
2022-11-27T23:11:49.523Z,33.63
2022-11-27T23:14:16.136Z,34.93
2022-11-27T23:16:42.841Z,36.87
2022-11-27T23:19:09.953Z,38.03
2022-11-27T23:21:38.975Z,37.90
2022-11-27T23:24:06.336Z,34.33
2022-11-27T23:26:32.815Z,36.40
2022-11-27T23:28:59.708Z,33.97
2022-11-27T23:31:31.493Z,34.60
2022-11-27T23:33:58.901Z,36.97
2022-11-27T23:36:25.884Z,35.87
2022-11-27T23:38:52.857Z,34.47
2022-11-27T23:41:20.609Z,35.07
2022-11-27T23:43:47.482Z,33.33
2022-11-27T23:46:15.056Z,34.53
2022-11-27T23:48:42.318Z,33.03
2022-11-27T23:51:16.113Z,33.00
2022-11-27T23:53:42.674Z,33.33
2022-11-27T23:56:10.062Z,32.10
2022-11-27T23:58:36.598Z,32.60
